Aldeias Altas, Brazil
Current Conditions -  °F | °C
As of 7:00 AM on Tuesday 21 Oct 2014 (Local Time) from SBTE Reporting Station
Few Clouds Few Clouds  
Wind Chill: 79°   Ceiling: Unl
Heat Index: 82°   Visibility: 6mi
Dew Point: 73°   Wind: 7mph
Humidity: 83%   Direction: 350°N
Pressure: 29.88"   Gusts: NA
Location:  4.63°S, 43.47°W
Report Text: SBTE 211000Z 35006KT 9999 FEW020 26/23 Q1012
Loading
Personal Weather Stations






























Interactive Weather Map
Tropical Storm Tracking
New forecast layout! Learn more

10-Day Weather Forecast

Advertisements
Track Severe Weather on mobile